sensor_id;sensor_type;location;lat;lon;timestamp;P1;durP1;ratioP1;P2;durP2;ratioP2
19509;SDS011;9896;42.486;26.506;2023-04-01T00:01:39;14.60;;;7.13;;
19509;SDS011;9896;42.486;26.506;2023-04-01T00:04:05;11.50;;;7.00;;
19509;SDS011;9896;42.486;26.506;2023-04-01T00:06:30;14.97;;;6.17;;
19509;SDS011;9896;42.486;26.506;2023-04-01T00:08:56;12.40;;;6.73;;
19509;SDS011;9896;42.486;26.506;2023-04-01T00:11:24;13.33;;;7.47;;
19509;SDS011;9896;42.486;26.506;2023-04-01T00:13:55;15.40;;;7.03;;
19509;SDS011;9896;42.486;26.506;2023-04-01T00:16:24;19.43;;;7.30;;
19509;SDS011;9896;42.486;26.506;2023-04-01T00:18:50;17.27;;;8.07;;
19509;SDS011;9896;42.486;26.506;2023-04-01T00:21:15;15.30;;;7.40;;
19509;SDS011;9896;42.486;26.506;2023-04-01T00:23:42;13.73;;;7.93;;
19509;SDS011;9896;42.486;26.506;2023-04-01T00:26:08;17.80;;;7.90;;
19509;SDS011;9896;42.486;26.506;2023-04-01T00:28:34;18.93;;;7.87;;
19509;SDS011;9896;42.486;26.506;2023-04-01T00:31:06;18.80;;;7.73;;
19509;SDS011;9896;42.486;26.506;2023-04-01T00:33:33;12.87;;;6.93;;
19509;SDS011;9896;42.486;26.506;2023-04-01T00:36:32;13.53;;;7.73;;
19509;SDS011;9896;42.486;26.506;2023-04-01T00:38:50;15.43;;;7.40;;
19509;SDS011;9896;42.486;26.506;2023-04-01T00:41:17;16.00;;;7.73;;
19509;SDS011;9896;42.486;26.506;2023-04-01T00:43:44;15.23;;;8.37;;
19509;SDS011;9896;42.486;26.506;2023-04-01T00:46:12;16.33;;;7.80;;
19509;SDS011;9896;42.486;26.506;2023-04-01T00:48:39;13.80;;;7.67;;
19509;SDS011;9896;42.486;26.506;2023-04-01T00:51:11;15.60;;;7.60;;
19509;SDS011;9896;42.486;26.506;2023-04-01T00:53:45;15.07;;;8.27;;
19509;SDS011;9896;42.486;26.506;2023-04-01T00:56:24;20.03;;;8.43;;
19509;SDS011;9896;42.486;26.506;2023-04-01T00:58:59;17.83;;;7.93;;
19509;SDS011;9896;42.486;26.506;2023-04-01T01:01:26;17.00;;;8.10;;
19509;SDS011;9896;42.486;26.506;2023-04-01T01:03:54;19.83;;;8.37;;
19509;SDS011;9896;42.486;26.506;2023-04-01T01:11:37;17.03;;;8.60;;
19509;SDS011;9896;42.486;26.506;2023-04-01T01:16:45;14.10;;;7.63;;
19509;SDS011;9896;42.486;26.506;2023-04-01T01:24:42;15.13;;;7.70;;
19509;SDS011;9896;42.486;26.506;2023-04-01T01:27:27;14.77;;;8.27;;
19509;SDS011;9896;42.486;26.506;2023-04-01T01:30:09;16.03;;;8.33;;
19509;SDS011;9896;42.486;26.506;2023-04-01T01:38:11;19.37;;;9.10;;
19509;SDS011;9896;42.486;26.506;2023-04-01T01:40:41;16.17;;;9.00;;
19509;SDS011;9896;42.486;26.506;2023-04-01T01:43:11;16.13;;;8.83;;
19509;SDS011;9896;42.486;26.506;2023-04-01T01:45:40;24.47;;;9.87;;
19509;SDS011;9896;42.486;26.506;2023-04-01T01:48:09;19.37;;;9.37;;
19509;SDS011;9896;42.486;26.506;2023-04-01T01:50:36;15.77;;;9.50;;
19509;SDS011;9896;42.486;26.506;2023-04-01T01:53:04;14.67;;;7.53;;
19509;SDS011;9896;42.486;26.506;2023-04-01T01:55:34;16.00;;;8.53;;
19509;SDS011;9896;42.486;26.506;2023-04-01T01:58:17;11.90;;;7.40;;
19509;SDS011;9896;42.486;26.506;2023-04-01T02:00:59;16.03;;;7.50;;
19509;SDS011;9896;42.486;26.506;2023-04-01T02:03:32;15.03;;;8.93;;
19509;SDS011;9896;42.486;26.506;2023-04-01T02:06:02;19.50;;;7.27;;
19509;SDS011;9896;42.486;26.506;2023-04-01T02:08:34;17.60;;;7.37;;
19509;SDS011;9896;42.486;26.506;2023-04-01T02:11:10;13.77;;;6.87;;
19509;SDS011;9896;42.486;26.506;2023-04-01T02:16:18;15.37;;;7.50;;
19509;SDS011;9896;42.486;26.506;2023-04-01T02:18:50;14.40;;;7.27;;
19509;SDS011;9896;42.486;26.506;2023-04-01T02:21:18;14.07;;;6.30;;
19509;SDS011;9896;42.486;26.506;2023-04-01T02:23:46;11.10;;;5.90;;
19509;SDS011;9896;42.486;26.506;2023-04-01T02:26:12;22.00;;;10.00;;
19509;SDS011;9896;42.486;26.506;2023-04-01T02:28:39;22.53;;;11.60;;
19509;SDS011;9896;42.486;26.506;2023-04-01T02:31:06;18.20;;;9.63;;
19509;SDS011;9896;42.486;26.506;2023-04-01T02:33:35;25.90;;;10.70;;
19509;SDS011;9896;42.486;26.506;2023-04-01T02:36:03;21.47;;;11.07;;
19509;SDS011;9896;42.486;26.506;2023-04-01T02:38:29;16.83;;;9.03;;
19509;SDS011;9896;42.486;26.506;2023-04-01T02:40:59;14.33;;;7.27;;
19509;SDS011;9896;42.486;26.506;2023-04-01T02:43:26;18.73;;;7.70;;
19509;SDS011;9896;42.486;26.506;2023-04-01T02:45:52;12.90;;;8.20;;
19509;SDS011;9896;42.486;26.506;2023-04-01T02:48:18;14.97;;;8.47;;
19509;SDS011;9896;42.486;26.506;2023-04-01T02:50:43;20.63;;;10.23;;
19509;SDS011;9896;42.486;26.506;2023-04-01T02:53:09;22.30;;;10.20;;
19509;SDS011;9896;42.486;26.506;2023-04-01T02:55:34;19.77;;;10.67;;
19509;SDS011;9896;42.486;26.506;2023-04-01T02:58:00;23.00;;;10.53;;
19509;SDS011;9896;42.486;26.506;2023-04-01T03:00:26;14.50;;;7.53;;
19509;SDS011;9896;42.486;26.506;2023-04-01T03:02:55;14.80;;;8.07;;
19509;SDS011;9896;42.486;26.506;2023-04-01T03:05:21;17.30;;;7.73;;
19509;SDS011;9896;42.486;26.506;2023-04-01T03:07:47;18.33;;;8.70;;
19509;SDS011;9896;42.486;26.506;2023-04-01T03:10:12;14.93;;;7.90;;
19509;SDS011;9896;42.486;26.506;2023-04-01T03:12:38;16.27;;;8.43;;
19509;SDS011;9896;42.486;26.506;2023-04-01T03:15:08;14.70;;;7.43;;
19509;SDS011;9896;42.486;26.506;2023-04-01T03:17:36;12.83;;;6.73;;
19509;SDS011;9896;42.486;26.506;2023-04-01T03:20:02;13.07;;;6.60;;
19509;SDS011;9896;42.486;26.506;2023-04-01T03:22:30;24.17;;;10.10;;
19509;SDS011;9896;42.486;26.506;2023-04-01T03:24:56;23.20;;;11.70;;
19509;SDS011;9896;42.486;26.506;2023-04-01T03:27:22;22.87;;;11.90;;
19509;SDS011;9896;42.486;26.506;2023-04-01T03:29:48;18.27;;;8.37;;
19509;SDS011;9896;42.486;26.506;2023-04-01T03:32:13;17.43;;;9.17;;
19509;SDS011;9896;42.486;26.506;2023-04-01T03:34:39;19.03;;;9.23;;
19509;SDS011;9896;42.486;26.506;2023-04-01T03:37:05;15.87;;;7.40;;
19509;SDS011;9896;42.486;26.506;2023-04-01T03:39:31;18.50;;;8.53;;
19509;SDS011;9896;42.486;26.506;2023-04-01T03:41:57;13.37;;;7.00;;
19509;SDS011;9896;42.486;26.506;2023-04-01T03:44:22;13.10;;;6.43;;
19509;SDS011;9896;42.486;26.506;2023-04-01T03:46:48;12.87;;;6.10;;
19509;SDS011;9896;42.486;26.506;2023-04-01T03:49:13;11.10;;;5.63;;
19509;SDS011;9896;42.486;26.506;2023-04-01T03:51:42;10.17;;;5.40;;
19509;SDS011;9896;42.486;26.506;2023-04-01T03:54:09;12.70;;;6.17;;
19509;SDS011;9896;42.486;26.506;2023-04-01T03:56:35;11.83;;;5.97;;
19509;SDS011;9896;42.486;26.506;2023-04-01T03:59:02;9.57;;;5.10;;
19509;SDS011;9896;42.486;26.506;2023-04-01T04:01:29;11.57;;;5.93;;
19509;SDS011;9896;42.486;26.506;2023-04-01T04:03:55;9.13;;;5.67;;
19509;SDS011;9896;42.486;26.506;2023-04-01T04:06:21;12.93;;;5.77;;
19509;SDS011;9896;42.486;26.506;2023-04-01T04:08:48;10.60;;;5.77;;
19509;SDS011;9896;42.486;26.506;2023-04-01T04:11:14;11.33;;;6.60;;
19509;SDS011;9896;42.486;26.506;2023-04-01T04:13:39;12.77;;;5.97;;
19509;SDS011;9896;42.486;26.506;2023-04-01T04:16:06;9.80;;;5.53;;
19509;SDS011;9896;42.486;26.506;2023-04-01T04:18:32;10.63;;;5.77;;
19509;SDS011;9896;42.486;26.506;2023-04-01T04:20:58;16.77;;;5.87;;
19509;SDS011;9896;42.486;26.506;2023-04-01T04:23:23;10.90;;;5.23;;
19509;SDS011;9896;42.486;26.506;2023-04-01T04:25:56;10.87;;;5.50;;
19509;SDS011;9896;42.486;26.506;2023-04-01T04:28:23;9.57;;;5.37;;
19509;SDS011;9896;42.486;26.506;2023-04-01T04:30:48;9.80;;;5.43;;
19509;SDS011;9896;42.486;26.506;2023-04-01T04:33:14;8.43;;;5.00;;
19509;SDS011;9896;42.486;26.506;2023-04-01T04:35:41;15.67;;;6.90;;
19509;SDS011;9896;42.486;26.506;2023-04-01T04:38:06;23.13;;;10.77;;
19509;SDS011;9896;42.486;26.506;2023-04-01T04:40:32;29.87;;;16.00;;
19509;SDS011;9896;42.486;26.506;2023-04-01T04:42:57;20.33;;;11.30;;
19509;SDS011;9896;42.486;26.506;2023-04-01T04:45:23;18.47;;;11.37;;
19509;SDS011;9896;42.486;26.506;2023-04-01T04:47:48;20.30;;;11.33;;
19509;SDS011;9896;42.486;26.506;2023-04-01T04:50:17;18.07;;;10.73;;
19509;SDS011;9896;42.486;26.506;2023-04-01T04:52:42;26.63;;;11.70;;
19509;SDS011;9896;42.486;26.506;2023-04-01T04:55:08;22.43;;;11.40;;
19509;SDS011;9896;42.486;26.506;2023-04-01T04:57:33;24.27;;;11.90;;
19509;SDS011;9896;42.486;26.506;2023-04-01T04:59:59;26.47;;;12.93;;
19509;SDS011;9896;42.486;26.506;2023-04-01T05:02:27;20.17;;;11.40;;
19509;SDS011;9896;42.486;26.506;2023-04-01T05:04:53;20.97;;;11.27;;
19509;SDS011;9896;42.486;26.506;2023-04-01T05:07:19;20.90;;;10.87;;
19509;SDS011;9896;42.486;26.506;2023-04-01T05:09:45;25.83;;;12.80;;
19509;SDS011;9896;42.486;26.506;2023-04-01T05:12:10;24.30;;;12.73;;
19509;SDS011;9896;42.486;26.506;2023-04-01T05:14:38;24.37;;;14.00;;
19509;SDS011;9896;42.486;26.506;2023-04-01T05:17:03;23.50;;;11.90;;
19509;SDS011;9896;42.486;26.506;2023-04-01T05:19:29;28.17;;;13.33;;
19509;SDS011;9896;42.486;26.506;2023-04-01T05:21:55;19.40;;;11.67;;
19509;SDS011;9896;42.486;26.506;2023-04-01T05:24:20;23.50;;;12.43;;
19509;SDS011;9896;42.486;26.506;2023-04-01T05:26:48;25.37;;;12.57;;
19509;SDS011;9896;42.486;26.506;2023-04-01T05:29:17;23.40;;;12.73;;
19509;SDS011;9896;42.486;26.506;2023-04-01T05:31:42;19.80;;;11.10;;
19509;SDS011;9896;42.486;26.506;2023-04-01T05:34:08;19.47;;;12.33;;
19509;SDS011;9896;42.486;26.506;2023-04-01T05:36:33;24.37;;;11.80;;
19509;SDS011;9896;42.486;26.506;2023-04-01T05:38:59;20.33;;;10.03;;
19509;SDS011;9896;42.486;26.506;2023-04-01T05:41:25;19.20;;;10.43;;
19509;SDS011;9896;42.486;26.506;2023-04-01T05:43:50;18.17;;;9.87;;
19509;SDS011;9896;42.486;26.506;2023-04-01T05:46:16;19.40;;;11.60;;
19509;SDS011;9896;42.486;26.506;2023-04-01T05:48:41;20.17;;;10.73;;
19509;SDS011;9896;42.486;26.506;2023-04-01T05:51:11;19.37;;;11.07;;
19509;SDS011;9896;42.486;26.506;2023-04-01T05:53:40;17.17;;;9.07;;
19509;SDS011;9896;42.486;26.506;2023-04-01T05:56:07;20.37;;;9.53;;
19509;SDS011;9896;42.486;26.506;2023-04-01T05:58:34;18.53;;;9.17;;
19509;SDS011;9896;42.486;26.506;2023-04-01T06:01:01;20.40;;;10.67;;
19509;SDS011;9896;42.486;26.506;2023-04-01T06:03:31;22.60;;;10.50;;
19509;SDS011;9896;42.486;26.506;2023-04-01T06:05:57;18.37;;;9.17;;
19509;SDS011;9896;42.486;26.506;2023-04-01T06:08:23;21.77;;;7.83;;
19509;SDS011;9896;42.486;26.506;2023-04-01T06:10:58;17.23;;;9.03;;
19509;SDS011;9896;42.486;26.506;2023-04-01T06:19:13;17.63;;;9.30;;
19509;SDS011;9896;42.486;26.506;2023-04-01T06:31:03;18.10;;;9.97;;
19509;SDS011;9896;42.486;26.506;2023-04-01T06:39:27;19.43;;;9.43;;
19509;SDS011;9896;42.486;26.506;2023-04-01T06:44:36;20.30;;;10.47;;
19509;SDS011;9896;42.486;26.506;2023-04-01T06:48:04;15.17;;;9.67;;
19509;SDS011;9896;42.486;26.506;2023-04-01T06:53:16;17.33;;;10.07;;
19509;SDS011;9896;42.486;26.506;2023-04-01T06:55:53;20.00;;;10.67;;
19509;SDS011;9896;42.486;26.506;2023-04-01T06:58:29;22.60;;;10.77;;
19509;SDS011;9896;42.486;26.506;2023-04-01T07:01:04;26.70;;;11.20;;
19509;SDS011;9896;42.486;26.506;2023-04-01T07:06:29;21.73;;;10.53;;
19509;SDS011;9896;42.486;26.506;2023-04-01T07:08:58;19.03;;;10.63;;
19509;SDS011;9896;42.486;26.506;2023-04-01T07:11:31;22.17;;;10.70;;
19509;SDS011;9896;42.486;26.506;2023-04-01T07:14:03;18.27;;;10.60;;
19509;SDS011;9896;42.486;26.506;2023-04-01T07:22:36;16.40;;;9.40;;
19509;SDS011;9896;42.486;26.506;2023-04-01T07:25:11;17.87;;;9.30;;
19509;SDS011;9896;42.486;26.506;2023-04-01T07:27:40;17.40;;;8.67;;
19509;SDS011;9896;42.486;26.506;2023-04-01T07:30:13;15.73;;;8.17;;
19509;SDS011;9896;42.486;26.506;2023-04-01T07:32:54;16.53;;;8.03;;
19509;SDS011;9896;42.486;26.506;2023-04-01T07:35:38;14.97;;;8.13;;
19509;SDS011;9896;42.486;26.506;2023-04-01T07:43:44;14.00;;;8.53;;
19509;SDS011;9896;42.486;26.506;2023-04-01T07:49:11;18.73;;;8.30;;
19509;SDS011;9896;42.486;26.506;2023-04-01T07:54:26;18.13;;;8.00;;
19509;SDS011;9896;42.486;26.506;2023-04-01T07:59:56;13.80;;;7.60;;
19509;SDS011;9896;42.486;26.506;2023-04-01T08:02:41;12.33;;;7.23;;
19509;SDS011;9896;42.486;26.506;2023-04-01T08:21:54;12.20;;;6.80;;
19509;SDS011;9896;42.486;26.506;2023-04-01T08:24:33;8.77;;;5.73;;
19509;SDS011;9896;42.486;26.506;2023-04-01T08:27:03;15.20;;;5.83;;
19509;SDS011;9896;42.486;26.506;2023-04-01T08:29:42;9.47;;;5.47;;
19509;SDS011;9896;42.486;26.506;2023-04-01T08:32:32;15.07;;;6.90;;
19509;SDS011;9896;42.486;26.506;2023-04-01T08:35:11;13.37;;;5.87;;
19509;SDS011;9896;42.486;26.506;2023-04-01T08:37:42;10.27;;;5.33;;
19509;SDS011;9896;42.486;26.506;2023-04-01T08:43:24;9.57;;;5.70;;
19509;SDS011;9896;42.486;26.506;2023-04-01T08:46:17;9.23;;;6.20;;
19509;SDS011;9896;42.486;26.506;2023-04-01T08:56:42;14.60;;;4.80;;
19509;SDS011;9896;42.486;26.506;2023-04-01T09:16:13;10.33;;;4.27;;
19509;SDS011;9896;42.486;26.506;2023-04-01T09:18:49;13.57;;;5.07;;
19509;SDS011;9896;42.486;26.506;2023-04-01T09:43:50;8.73;;;4.73;;
19509;SDS011;9896;42.486;26.506;2023-04-01T09:54:29;9.07;;;4.20;;
19509;SDS011;9896;42.486;26.506;2023-04-01T10:11:01;102.57;;;9.63;;
19509;SDS011;9896;42.486;26.506;2023-04-01T10:13:45;80.00;;;6.77;;
19509;SDS011;9896;42.486;26.506;2023-04-01T10:19:55;10.70;;;4.20;;
19509;SDS011;9896;42.486;26.506;2023-04-01T10:28:25;14.07;;;4.47;;
19509;SDS011;9896;42.486;26.506;2023-04-01T10:56:42;10.60;;;3.90;;
19509;SDS011;9896;42.486;26.506;2023-04-01T11:44:24;20.70;;;7.03;;
19509;SDS011;9896;42.486;26.506;2023-04-01T11:47:09;13.13;;;5.30;;
19509;SDS011;9896;42.486;26.506;2023-04-01T12:00:58;8.53;;;2.97;;
19509;SDS011;9896;42.486;26.506;2023-04-01T12:03:43;994.20;;;57.80;;
19509;SDS011;9896;42.486;26.506;2023-04-01T12:15:02;303.20;;;17.00;;
19509;SDS011;9896;42.486;26.506;2023-04-01T12:36:40;355.27;;;22.33;;
19509;SDS011;9896;42.486;26.506;2023-04-01T12:50:31;210.20;;;15.83;;
19509;SDS011;9896;42.486;26.506;2023-04-01T12:56:16;130.23;;;7.90;;
19509;SDS011;9896;42.486;26.506;2023-04-01T13:02:19;73.87;;;7.90;;
19509;SDS011;9896;42.486;26.506;2023-04-01T13:13:25;301.87;;;18.67;;
19509;SDS011;9896;42.486;26.506;2023-04-01T13:16:24;54.27;;;6.17;;
19509;SDS011;9896;42.486;26.506;2023-04-01T13:19:00;602.33;;;30.93;;
19509;SDS011;9896;42.486;26.506;2023-04-01T13:40:00;625.23;;;31.60;;
19509;SDS011;9896;42.486;26.506;2023-04-01T13:42:47;886.20;;;49.50;;
19509;SDS011;9896;42.486;26.506;2023-04-01T13:45:22;620.37;;;33.07;;
19509;SDS011;9896;42.486;26.506;2023-04-01T13:58:20;1118.77;;;61.90;;
19509;SDS011;9896;42.486;26.506;2023-04-01T14:01:29;1838.17;;;99.87;;
19509;SDS011;9896;42.486;26.506;2023-04-01T14:04:03;1999.90;;;165.27;;
19509;SDS011;9896;42.486;26.506;2023-04-01T14:15:42;859.80;;;44.53;;
19509;SDS011;9896;42.486;26.506;2023-04-01T14:21:00;1129.70;;;61.53;;
19509;SDS011;9896;42.486;26.506;2023-04-01T14:26:11;537.87;;;31.33;;
19509;SDS011;9896;42.486;26.506;2023-04-01T14:34:21;692.03;;;37.40;;
19509;SDS011;9896;42.486;26.506;2023-04-01T14:37:19;1129.37;;;61.23;;
19509;SDS011;9896;42.486;26.506;2023-04-01T14:45:46;678.87;;;35.07;;
19509;SDS011;9896;42.486;26.506;2023-04-01T14:54:07;294.07;;;17.93;;
19509;SDS011;9896;42.486;26.506;2023-04-01T14:59:09;435.63;;;26.90;;
19509;SDS011;9896;42.486;26.506;2023-04-01T15:04:43;552.43;;;30.57;;
19509;SDS011;9896;42.486;26.506;2023-04-01T15:10:21;947.57;;;47.17;;
19509;SDS011;9896;42.486;26.506;2023-04-01T15:15:39;85.40;;;6.03;;
19509;SDS011;9896;42.486;26.506;2023-04-01T15:18:46;16.27;;;3.70;;
19509;SDS011;9896;42.486;26.506;2023-04-01T15:27:32;93.57;;;8.63;;
19509;SDS011;9896;42.486;26.506;2023-04-01T15:30:27;171.70;;;9.23;;
19509;SDS011;9896;42.486;26.506;2023-04-01T15:33:11;704.50;;;38.73;;
19509;SDS011;9896;42.486;26.506;2023-04-01T15:43:51;15.87;;;3.77;;
19509;SDS011;9896;42.486;26.506;2023-04-01T15:51:53;389.37;;;20.00;;
19509;SDS011;9896;42.486;26.506;2023-04-01T16:00:31;858.20;;;48.63;;
19509;SDS011;9896;42.486;26.506;2023-04-01T16:09:19;1002.53;;;53.83;;
19509;SDS011;9896;42.486;26.506;2023-04-01T16:17:29;1573.83;;;85.10;;
19509;SDS011;9896;42.486;26.506;2023-04-01T16:20:18;301.40;;;19.07;;
19509;SDS011;9896;42.486;26.506;2023-04-01T16:25:31;164.27;;;10.27;;
19509;SDS011;9896;42.486;26.506;2023-04-01T16:36:33;322.20;;;13.83;;
19509;SDS011;9896;42.486;26.506;2023-04-01T16:44:41;5.83;;;2.20;;
19509;SDS011;9896;42.486;26.506;2023-04-01T16:47:16;4.37;;;2.20;;
19509;SDS011;9896;42.486;26.506;2023-04-01T16:49:54;4.57;;;2.10;;
19509;SDS011;9896;42.486;26.506;2023-04-01T16:52:43;7.43;;;2.90;;
19509;SDS011;9896;42.486;26.506;2023-04-01T16:55:19;6.77;;;3.27;;
19509;SDS011;9896;42.486;26.506;2023-04-01T16:57:50;6.97;;;2.73;;
19509;SDS011;9896;42.486;26.506;2023-04-01T17:00:26;6.50;;;3.20;;
19509;SDS011;9896;42.486;26.506;2023-04-01T17:21:03;4.37;;;2.00;;
19509;SDS011;9896;42.486;26.506;2023-04-01T17:23:42;3.07;;;1.70;;
19509;SDS011;9896;42.486;26.506;2023-04-01T17:37:32;6.57;;;3.07;;
19509;SDS011;9896;42.486;26.506;2023-04-01T17:45:49;9.77;;;4.57;;
19509;SDS011;9896;42.486;26.506;2023-04-01T17:48:24;8.27;;;3.90;;
19509;SDS011;9896;42.486;26.506;2023-04-01T17:56:55;3.10;;;1.40;;
19509;SDS011;9896;42.486;26.506;2023-04-01T17:59:36;5.10;;;1.80;;
19509;SDS011;9896;42.486;26.506;2023-04-01T18:07:50;3.80;;;2.20;;
19509;SDS011;9896;42.486;26.506;2023-04-01T18:18:48;7.63;;;3.17;;
19509;SDS011;9896;42.486;26.506;2023-04-01T18:24:06;5.83;;;2.67;;
19509;SDS011;9896;42.486;26.506;2023-04-01T18:27:00;6.53;;;4.03;;
19509;SDS011;9896;42.486;26.506;2023-04-01T18:32:23;5.17;;;3.40;;
19509;SDS011;9896;42.486;26.506;2023-04-01T18:40:41;6.13;;;3.37;;
19509;SDS011;9896;42.486;26.506;2023-04-01T18:43:22;8.63;;;4.17;;
19509;SDS011;9896;42.486;26.506;2023-04-01T18:46:12;4.33;;;2.83;;
19509;SDS011;9896;42.486;26.506;2023-04-01T18:48:59;6.07;;;3.60;;
19509;SDS011;9896;42.486;26.506;2023-04-01T18:54:16;109.00;;;15.73;;
19509;SDS011;9896;42.486;26.506;2023-04-01T18:56:51;40.37;;;8.80;;
19509;SDS011;9896;42.486;26.506;2023-04-01T18:59:58;28.33;;;6.90;;
19509;SDS011;9896;42.486;26.506;2023-04-01T19:02:38;8.30;;;4.60;;
19509;SDS011;9896;42.486;26.506;2023-04-01T19:10:17;11.77;;;5.70;;
19509;SDS011;9896;42.486;26.506;2023-04-01T19:13:01;11.90;;;6.60;;
19509;SDS011;9896;42.486;26.506;2023-04-01T19:24:23;12.80;;;7.47;;
19509;SDS011;9896;42.486;26.506;2023-04-01T19:27:06;10.33;;;6.90;;
19509;SDS011;9896;42.486;26.506;2023-04-01T19:35:46;9.33;;;6.67;;
19509;SDS011;9896;42.486;26.506;2023-04-01T19:38:26;11.20;;;6.20;;
19509;SDS011;9896;42.486;26.506;2023-04-01T19:46:05;9.50;;;6.00;;
19509;SDS011;9896;42.486;26.506;2023-04-01T19:51:19;13.03;;;5.70;;
19509;SDS011;9896;42.486;26.506;2023-04-01T19:56:48;10.30;;;6.70;;
19509;SDS011;9896;42.486;26.506;2023-04-01T19:59:28;12.20;;;7.27;;
19509;SDS011;9896;42.486;26.506;2023-04-01T20:04:43;13.57;;;7.10;;
19509;SDS011;9896;42.486;26.506;2023-04-01T20:07:19;13.00;;;7.83;;
19509;SDS011;9896;42.486;26.506;2023-04-01T20:10:09;17.30;;;8.20;;
19509;SDS011;9896;42.486;26.506;2023-04-01T20:15:21;12.53;;;7.63;;
19509;SDS011;9896;42.486;26.506;2023-04-01T20:18:12;14.57;;;7.70;;
19509;SDS011;9896;42.486;26.506;2023-04-01T20:20:39;13.63;;;7.90;;
19509;SDS011;9896;42.486;26.506;2023-04-01T20:26:06;14.73;;;8.47;;
19509;SDS011;9896;42.486;26.506;2023-04-01T20:28:42;13.50;;;8.30;;
19509;SDS011;9896;42.486;26.506;2023-04-01T20:31:27;16.90;;;9.60;;
19509;SDS011;9896;42.486;26.506;2023-04-01T20:42:46;17.43;;;10.07;;
19509;SDS011;9896;42.486;26.506;2023-04-01T20:45:26;18.80;;;9.57;;
19509;SDS011;9896;42.486;26.506;2023-04-01T20:50:48;17.07;;;9.97;;
19509;SDS011;9896;42.486;26.506;2023-04-01T20:53:15;16.03;;;9.37;;
19509;SDS011;9896;42.486;26.506;2023-04-01T20:56:24;17.43;;;9.80;;
19509;SDS011;9896;42.486;26.506;2023-04-01T20:59:34;16.50;;;10.60;;
19509;SDS011;9896;42.486;26.506;2023-04-01T21:07:33;16.30;;;9.47;;
19509;SDS011;9896;42.486;26.506;2023-04-01T21:29:24;20.83;;;10.10;;
19509;SDS011;9896;42.486;26.506;2023-04-01T21:42:56;13.20;;;7.53;;
19509;SDS011;9896;42.486;26.506;2023-04-01T21:46:01;11.03;;;7.30;;
19509;SDS011;9896;42.486;26.506;2023-04-01T21:51:36;10.07;;;6.53;;
19509;SDS011;9896;42.486;26.506;2023-04-01T22:02:36;8.43;;;6.40;;
19509;SDS011;9896;42.486;26.506;2023-04-01T22:10:50;8.33;;;6.07;;
19509;SDS011;9896;42.486;26.506;2023-04-01T22:25:14;8.77;;;5.20;;
19509;SDS011;9896;42.486;26.506;2023-04-01T22:27:41;7.17;;;4.33;;
19509;SDS011;9896;42.486;26.506;2023-04-01T22:30:27;6.47;;;4.17;;
19509;SDS011;9896;42.486;26.506;2023-04-01T22:40:52;8.37;;;4.80;;
19509;SDS011;9896;42.486;26.506;2023-04-01T22:43:39;8.63;;;4.87;;
19509;SDS011;9896;42.486;26.506;2023-04-01T22:51:57;6.60;;;4.33;;
19509;SDS011;9896;42.486;26.506;2023-04-01T22:57:54;10.33;;;4.00;;
19509;SDS011;9896;42.486;26.506;2023-04-01T23:00:35;8.33;;;4.20;;
19509;SDS011;9896;42.486;26.506;2023-04-01T23:05:45;9.10;;;4.90;;
19509;SDS011;9896;42.486;26.506;2023-04-01T23:08:39;6.20;;;4.37;;
19509;SDS011;9896;42.486;26.506;2023-04-01T23:11:42;4.50;;;3.60;;
19509;SDS011;9896;42.486;26.506;2023-04-01T23:17:28;6.07;;;3.73;;
19509;SDS011;9896;42.486;26.506;2023-04-01T23:22:34;3.60;;;2.70;;
19509;SDS011;9896;42.486;26.506;2023-04-01T23:27:49;4.70;;;2.70;;
19509;SDS011;9896;42.486;26.506;2023-04-01T23:38:21;3.93;;;2.30;;
19509;SDS011;9896;42.486;26.506;2023-04-01T23:40:50;3.27;;;2.20;;
19509;SDS011;9896;42.486;26.506;2023-04-01T23:45:54;5.50;;;2.37;;
19509;SDS011;9896;42.486;26.506;2023-04-01T23:48:23;2.67;;;2.40;;
19509;SDS011;9896;42.486;26.506;2023-04-01T23:50:56;3.23;;;2.13;;
19509;SDS011;9896;42.486;26.506;2023-04-01T23:53:24;4.30;;;2.23;;
19509;SDS011;9896;42.486;26.506;2023-04-01T23:55:51;5.17;;;2.50;;
19509;SDS011;9896;42.486;26.506;2023-04-01T23:58:22;3.80;;;2.40;;
